• Join FlightAware (Why Join?)
  • Login
  • US Flag 
10:27AM EST


 

Airport Tracker/Info


-or-


 

Live Flight TrackerFlight Track Log ✈ N1926A ✈ 02-Jul-2013 ✈ KPIT - 41A

Flight Track Log - Related Links

Times and Time Zones

All times are in EDT time to prevent confusion due to time zone crossing. See the N1926A flight status page for this flight to view local times or setup timezone preferences in your user account.

Time Position Orientation Groundspeed Altitude Reporting Facility
EDT Latitude Longitude Course Direction KTS MPH feet Rate Location/Type
04:46PM 40.4392 -80.3375 217° Southwest 138 159 4,900  Level Indianapolis Center
04:47PM 40.3914 -80.3800 214° Southwest 197 227 5,000 180 Climbing Indianapolis Center
04:48PM 40.3381 -80.4250 213° Southwest 244 281 5,300 840 Climbing Cleveland Center
04:49PM 40.2881 -80.4714 215° Southwest 244 281 6,600 1,200 Climbing Cleveland Center
04:50PM 40.2403 -80.5097 211° Southwest 225 259 7,700 1,080 Climbing Cleveland Center
04:51PM 40.0975 -80.5271 213° Southwest  Level FlightAware Approximate
04:51PM 40.1903 -80.5531 214° Southwest 220 253 8,800  Level Cleveland Center
04:52PM 40.0434 -80.5733 217° Southwest  Level FlightAware Approximate
04:52PM 40.1381 -80.5939 211° Southwest 215 247 9,000  Level Cleveland Center
04:53PM 40.0817 -80.6319 207° Southwest 227 261 9,100 420 Climbing Cleveland Center
04:54PM 40.0233 -80.6697 206° Southwest 232 267 9,900 600 Climbing Cleveland Center
04:55PM 39.9733 -80.7158 215° Southwest 232 267 10,400 600 Climbing Cleveland Center
04:56PM 39.9231 -80.7644 217° Southwest 232 267 11,100 540 Climbing Cleveland Center
04:57PM 39.8753 -80.8156 219° Southwest 232 267 11,500 300 Climbing Cleveland Center
04:58PM 39.8250 -80.8642 217° Southwest 232 267 11,800 300 Climbing Cleveland Center
04:59PM 39.7972 -80.8961 221° Southwest 227 261 12,000 120 Climbing Indianapolis Center
05:00PM 39.7453 -80.9453 216° Southwest 231 266 12,000  Level Indianapolis Center
05:01PM 39.6906 -80.9908 213° Southwest 234 269 12,000  Level Indianapolis Center
05:02PM 39.6353 -81.0350 212° Southwest 232 267 12,000  Level Indianapolis Center
05:03PM 39.5792 -81.0744 208° Southwest 230 265 12,000  Level Indianapolis Center
05:04PM 39.5239 -81.1128 208° Southwest 227 261 12,000  Level Indianapolis Center
05:05PM 39.4553 -81.1611 209° Southwest 232 267 12,000  Level Indianapolis Center
05:06PM 39.3997 -81.2011 209° Southwest 228 262 12,000  Level Indianapolis Center
05:07PM 39.3433 -81.2414 209° Southwest 231 266 12,000  Level Indianapolis Center
05:08PM 39.2883 -81.2831 210° Southwest 229 264 12,000  Level Indianapolis Center
05:09PM 39.2333 -81.3256 211° Southwest 229 264 12,000  Level Indianapolis Center
05:10PM 39.1797 -81.3675 211° Southwest 226 260 12,000  Level Indianapolis Center
05:11PM 39.1139 -81.4192 211° Southwest 230 265 12,000  Level Indianapolis Center
05:12PM 39.0606 -81.4600 211° Southwest 225 259 12,000  Level Indianapolis Center
05:13PM 39.0067 -81.5006 210° Southwest 224 258 12,000  Level Indianapolis Center
05:14PM 38.9519 -81.5403 209° Southwest 225 259 12,000  Level Indianapolis Center
05:15PM 38.8983 -81.5806 210° Southwest 224 258 12,000  Level Indianapolis Center
05:16PM 38.8436 -81.6192 209° Southwest 227 261 12,000  Level Indianapolis Center
05:17PM 38.7783 -81.6653 209° Southwest 227 261 12,000  Level Indianapolis Center
05:18PM 38.7247 -81.7050 210° Southwest 226 260 12,000  Level Indianapolis Center
05:19PM 38.6706 -81.7439 209° Southwest 228 262 12,000  Level Indianapolis Center
05:20PM 38.6153 -81.7767 205° Southwest 226 260 12,000  Level Indianapolis Center
05:21PM 38.5550 -81.7883 189° South 221 254 12,000  Level Indianapolis Center
05:22PM 38.4811 -81.8042 190° South 225 259 12,000  Level Indianapolis Center
05:24PM 38.4186 -81.8189 190° South 227 261 12,000  Level Indianapolis Center
05:25PM 38.3572 -81.8336 191° South 226 260 12,000  Level Indianapolis Center
05:26PM 38.2958 -81.8467 189° South 224 258 12,000  Level Indianapolis Center
05:27PM 38.2333 -81.8597 189° South 227 261 12,000  Level Indianapolis Center
05:28PM 38.1719 -81.8731 190° South 223 257 12,000  Level Indianapolis Center
05:29PM 38.1108 -81.8875 191° South 224 258 12,000  Level Indianapolis Center
05:30PM 38.0431 -81.9264 204° Southwest 224 258 12,000  Level Indianapolis Center
05:31PM 37.9872 -81.9603 206° Southwest 223 257 12,000  Level Indianapolis Center
05:32PM 37.9322 -81.9992 209° Southwest 225 259 12,000  Level Indianapolis Center
05:33PM 37.8783 -82.0342 207° Southwest 218 251 12,000  Level Indianapolis Center
05:34PM 37.8214 -82.0847 215° Southwest 226 260 12,100  Climbing Indianapolis Center
05:35PM 37.7697 -82.1331 216° Southwest 229 264 12,100 -60 Level Indianapolis Center
05:36PM 37.7361 -82.2017 238° Southwest 233 268 12,000 -60 Descending Indianapolis Center
05:37PM 37.7136 -82.2786 250° West 234 269 12,000  Level Indianapolis Center
05:38PM 37.6975 -82.3600 256° West 237 273 12,000  Level Indianapolis Center
05:39PM 37.6872 -82.4544 262° West 233 268 12,000  Level Indianapolis Center
05:40PM 37.6814 -82.5381 265° West 237 273 12,000  Level Indianapolis Center
05:41PM 37.6556 -82.6175 248° West 244 281 12,000  Level Indianapolis Center
05:42PM 37.6269 -82.6947 245° Southwest 244 281 12,000  Level Indianapolis Center
05:43PM 37.5850 -82.7614 232° Southwest 245 282 12,000  Level Indianapolis Center
05:44PM 37.5358 -82.8175 222° Southwest 239 275 12,000  Level Indianapolis Center
05:45PM 37.4758 -82.8794 219° Southwest 240 276 12,000  Level Indianapolis Center
05:46PM 37.4214 -82.9286 216° Southwest 241 277 12,000  Level Indianapolis Center
05:47PM 37.3667 -82.9767 215° Southwest 240 276 12,000  Level Indianapolis Center
05:48PM 37.3119 -83.0222 214° Southwest 236 272 12,000  Level Indianapolis Center
05:49PM 37.2567 -83.0678 213° Southwest 237 273 12,000  Level Indianapolis Center
05:50PM 37.2014 -83.1125 213° Southwest 237 273 12,000  Level Indianapolis Center
05:51PM 37.1361 -83.1656 213° Southwest 239 275 12,100  Climbing Indianapolis Center
05:52PM 37.0783 -83.2019 207° Southwest 234 269 12,000 -60 Descending Indianapolis Center
05:53PM 37.0200 -83.2381 206° Southwest 234 269 12,000  Level Indianapolis Center
05:54PM 36.9617 -83.2747 207° Southwest 236 272 12,000  Level Indianapolis Center
05:55PM 36.9036 -83.3108 206° Southwest 235 270 12,000  Level Indianapolis Center
05:56PM 36.8347 -83.3531 206° Southwest 236 272 12,000  Level Indianapolis Center
05:57PM 36.7756 -83.3889 206° Southwest 235 270 12,000  Level Indianapolis Center
05:59PM 36.7156 -83.4236 205° Southwest 237 273 12,000  Level Indianapolis Center
06:00PM 36.6564 -83.4608 207° Southwest 238 274 12,000  Level Indianapolis Center
06:01PM 36.5975 -83.4983 207° Southwest 239 275 12,000  Level Indianapolis Center
06:02PM 36.5392 -83.5361 207° Southwest 237 273 12,000  Level Indianapolis Center
06:03PM 36.4736 -83.5792 208° Southwest 237 273 12,000  Level Indianapolis Center
06:04PM 36.4139 -83.6156 206° Southwest 238 274 12,000  Level Indianapolis Center
06:05PM 36.3547 -83.6506 205° Southwest 237 273 12,000  Level Indianapolis Center
06:06PM 36.2947 -83.6878 207° Southwest 239 275 12,000  Level Indianapolis Center
06:07PM 36.2347 -83.7222 205° Southwest 238 274 12,000  Level Indianapolis Center
06:08PM 36.1642 -83.7658 207° Southwest 237 273 12,000  Level Indianapolis Center
06:09PM 36.1228 -83.7919 207° Southwest 237 273 12,000  Level Atlanta Center
06:10PM 36.0644 -83.8306 208° Southwest 237 273 12,000  Level Atlanta Center
06:11PM 36.0019 -83.8642 204° Southwest 237 273 12,000  Level Atlanta Center
06:12PM 35.9436 -83.9003 207° Southwest 237 273 12,000  Level Atlanta Center
06:13PM 35.8850 -83.9361 206° Southwest 237 273 12,000  Level Atlanta Center
06:14PM 35.8289 -83.9722 208° Southwest 237 273 12,000  Level Atlanta Center
06:15PM 35.7706 -84.0081 206° Southwest 237 273 12,000  Level Atlanta Center
06:16PM 35.7119 -84.0414 205° Southwest 237 273 12,000  Level Atlanta Center
06:17PM 35.6556 -84.0744 205° Southwest 237 273 12,000  Level Atlanta Center
06:18PM 35.5972 -84.1078 205° Southwest 237 273 12,100  Climbing Atlanta Center
06:19PM 35.5408 -84.1458 209° Southwest 237 273 12,000 -60 Descending Atlanta Center
06:20PM 35.4803 -84.1789 204° Southwest 237 273 12,000  Level Atlanta Center
06:21PM 35.4239 -84.2147 207° Southwest 237 273 12,100  Climbing Atlanta Center
06:22PM 35.3656 -84.2475 205° Southwest 237 273 12,000 -60 Descending Atlanta Center
06:23PM 35.3069 -84.2831 206° Southwest 237 273 12,000  Level Atlanta Center
06:24PM 35.2506 -84.3158 205° Southwest 237 273 12,100  Climbing Atlanta Center
06:25PM 35.1900 -84.3514 206° Southwest 237 273 12,000 -60 Descending Atlanta Center
06:26PM 35.1336 -84.3842 205° Southwest 237 273 12,000  Level Atlanta Center
06:27PM 35.0750 -84.4219 208° Southwest 237 273 12,000  Level Atlanta Center
06:28PM 35.0167 -84.4547 205° Southwest 237 273 12,000  Level Atlanta Center
06:29PM 34.9600 -84.4900 207° Southwest 237 273 12,100  Climbing Atlanta Center
06:30PM 34.8994 -84.5250 205° Southwest 237 273 12,000  Descending Atlanta Center
06:31PM 34.8450 -84.5603 208° Southwest 237 273 12,100  Climbing Atlanta Center
06:32PM 34.7844 -84.5928 204° Southwest 237 273 12,000 -60 Descending Atlanta Center
06:33PM 34.7258 -84.6275 206° Southwest 237 273 12,000  Level Atlanta Center
06:34PM 34.6650 -84.6600 204° Southwest 237 273 12,000  Level Atlanta Center
06:35PM 34.6064 -84.6925 205° Southwest 237 273 12,000  Level Atlanta Center
06:36PM 34.5542 -84.7375 215° Southwest 237 273 12,000  Level Atlanta Center
06:37PM 34.5036 -84.7900 221° Southwest 237 273 12,000  Level Atlanta Center
06:38PM 34.4511 -84.8475 222° Southwest 237 273 12,000  Level Atlanta Center
06:39PM 34.3986 -84.8997 219° Southwest 237 273 12,000  Level Atlanta Center
06:40PM 34.3503 -84.9522 222° Southwest 237 273 12,000  Level Atlanta Center
06:41PM 34.2978 -85.0019 218° Southwest 237 273 12,000  Level Atlanta Center
06:42PM 34.2450 -85.0489 216° Southwest 243 280 12,000  Level Atlanta Center
06:43PM 34.1925 -85.0961 217° Southwest 243 280 12,000  Level Atlanta Center
06:44PM 34.1378 -85.1431 215° Southwest 238 274 12,000  Level Atlanta Center
06:45PM 34.0833 -85.1775 208° Southwest 238 274 12,000  Level Atlanta Center
06:46PM 34.0244 -85.2067 202° Southwest 238 274 12,000  Level Atlanta Center
06:47PM 33.9636 -85.2386 204° Southwest 238 274 12,100  Climbing Atlanta Center
06:48PM 33.9028 -85.2703 203° Southwest 238 274 12,100  Level Atlanta Center
06:49PM 33.8419 -85.2994 202° Southwest 238 274 12,100 -60 Level Atlanta Center
06:50PM 33.7814 -85.3258 200° South 238 274 12,000  Descending Atlanta Center
06:51PM 33.7142 -85.3475 195° South 238 274 12,100  Climbing Atlanta Center
06:52PM 33.6597 -85.3642 194° South 238 274 12,100  Level Atlanta Center
06:53PM 33.5950 -85.3806 192° South 238 274 12,100  Level Atlanta Center
06:54PM 33.5342 -85.4069 200° South 238 274 12,100  Level Atlanta Center
06:55PM 33.4753 -85.4408 206° Southwest 238 274 12,100 -60 Level Atlanta Center
06:56PM 33.4144 -85.4697 202° Southwest 238 274 12,000 -60 Descending Atlanta Center
06:57PM 33.3556 -85.4986 202° Southwest 231 266 12,000 -120 Level Atlanta Center
06:58PM 33.2947 -85.5250 200° South 231 266 11,800 -900 Descending Atlanta Center
06:59PM 33.2278 -85.5536 200° South 244 281 10,300 -1,380 Descending Atlanta Center
07:00PM 33.1583 -85.5847 201° Southwest 256 295 9,100 -1,200 Descending Atlanta Center
07:01PM 33.0911 -85.6133 200° South 256 295 8,000 -1,200 Descending Atlanta Center
07:02PM 33.0239 -85.6467 203° Southwest 261 300 6,800 -1,200 Descending Atlanta Center